Time;durP1;ratioP1;P1;durP2;ratioP2;P2;SDS_P1;SDS_P2;PMS_P1;PMS_P2;Temp;Humidity;BMP_temperature;BMP_pressure;BME280_temperature;BME280_humidity;BME280_pressure;Samples;Min_cycle;Max_cycle;Signal;HPM_P1;HPM_P2
2022/07/24 00:02:11;;;;;;;38.15;30.00;;;18.50;99.90;;;;;;5071014;28;20033;-63
2022/07/24 00:04:37;;;;;;;37.60;30.08;;;18.40;99.90;;;;;;5070727;28;20385;-64
2022/07/24 00:07:03;;;;;;;38.15;29.73;;;18.40;99.90;;;;;;5071202;28;20033;-62
2022/07/24 00:09:28;;;;;;;36.33;29.25;;;18.60;99.90;;;;;;5071423;28;20036;-63
2022/07/24 00:11:54;;;;;;;36.53;29.73;;;18.50;99.90;;;;;;5070761;28;20113;-62
2022/07/24 00:14:19;;;;;;;36.63;30.17;;;18.50;99.90;;;;;;5070737;28;20043;-62
2022/07/24 00:16:45;;;;;;;36.97;30.25;;;18.40;99.90;;;;;;5070776;28;20024;-62
2022/07/24 00:19:11;;;;;;;36.85;29.38;;;18.50;99.90;;;;;;5070984;28;20389;-63
2022/07/24 00:21:36;;;;;;;38.20;28.15;;;18.40;99.90;;;;;;5069247;28;20119;-62
2022/07/24 00:24:02;;;;;;;32.30;27.02;;;18.50;99.90;;;;;;5070923;28;20024;-62
2022/07/24 00:26:28;;;;;;;32.47;27.13;;;18.50;99.90;;;;;;5070693;28;20028;-64
2022/07/24 00:28:53;;;;;;;39.65;29.05;;;18.50;99.90;;;;;;5069732;28;20028;-63
2022/07/24 00:31:19;;;;;;;37.92;29.20;;;18.50;99.90;;;;;;5070750;28;20485;-62
2022/07/24 00:33:46;;;;;;;34.95;27.63;;;18.60;99.90;;;;;;5070617;28;20028;-62
2022/07/24 00:36:11;;;;;;;34.08;27.50;;;18.50;99.90;;;;;;5070709;28;20044;-65
2022/07/24 00:38:37;;;;;;;35.10;28.40;;;18.40;99.90;;;;;;5071017;28;20071;-63
2022/07/24 00:41:03;;;;;;;37.20;28.55;;;18.30;99.90;;;;;;5070611;28;20456;-65
2022/07/24 00:43:29;;;;;;;35.47;27.67;;;18.20;99.90;;;;;;5071605;28;20385;-63
2022/07/24 00:45:54;;;;;;;33.38;28.00;;;18.20;99.90;;;;;;5074169;28;20020;-63
2022/07/24 00:48:20;;;;;;;33.28;28.38;;;18.30;99.90;;;;;;5074389;28;20029;-63
2022/07/24 00:50:46;;;;;;;37.78;28.25;;;18.30;99.90;;;;;;5074125;28;20402;-62
2022/07/24 00:53:12;;;;;;;35.28;27.40;;;18.20;99.90;;;;;;5074064;28;20120;-62
2022/07/24 00:55:38;;;;;;;32.17;25.85;;;18.20;99.90;;;;;;5074232;28;20134;-62
2022/07/24 00:58:03;;;;;;;33.70;26.05;;;18.20;99.90;;;;;;5073922;28;20041;-62
2022/07/24 01:00:29;;;;;;;30.65;24.75;;;18.10;99.90;;;;;;5074047;28;20032;-62
2022/07/24 01:02:55;;;;;;;27.58;21.80;;;18.20;99.90;;;;;;5074296;28;20232;-62
2022/07/24 01:05:21;;;;;;;25.30;20.95;;;18.20;99.90;;;;;;5073822;28;20497;-62
2022/07/24 01:07:47;;;;;;;25.40;21.23;;;18.20;99.90;;;;;;5074065;28;20032;-62
2022/07/24 01:10:13;;;;;;;25.80;19.83;;;18.20;99.90;;;;;;5073963;28;20055;-62
2022/07/24 01:12:39;;;;;;;26.27;19.25;;;18.30;99.90;;;;;;5073788;28;20036;-63
2022/07/24 01:15:09;;;;;;;27.83;19.30;;;18.30;99.90;;;;;;5073966;28;20555;-62
2022/07/24 01:17:36;;;;;;;26.23;19.35;;;18.20;99.90;;;;;;5074002;28;20476;-62
2022/07/24 01:20:04;;;;;;;25.33;19.02;;;18.30;99.90;;;;;;5073758;28;20043;-63
2022/07/24 01:22:30;;;;;;;25.27;18.75;;;18.30;99.90;;;;;;5073928;28;20566;-62
2022/07/24 01:24:56;;;;;;;23.92;18.70;;;18.20;99.90;;;;;;5074109;28;20070;-63
2022/07/24 01:27:23;;;;;;;25.17;16.70;;;18.10;99.90;;;;;;5073577;28;20036;-62
2022/07/24 01:29:49;;;;;;;20.10;15.70;;;18.10;99.90;;;;;;5073922;28;20024;-62
2022/07/24 01:32:15;;;;;;;18.50;15.63;;;18.10;99.90;;;;;;5073730;28;20484;-61
2022/07/24 01:34:41;;;;;;;18.23;14.95;;;18.00;99.90;;;;;;5073383;28;20127;-62
2022/07/24 01:37:06;;;;;;;20.98;15.93;;;18.10;99.90;;;;;;5073419;28;20052;-61
2022/07/24 01:39:32;;;;;;;18.45;15.20;;;18.00;99.90;;;;;;5073613;28;20097;-61
2022/07/24 01:41:58;;;;;;;17.88;14.27;;;18.00;99.90;;;;;;5073155;28;20150;-61
2022/07/24 01:44:24;;;;;;;18.73;14.25;;;18.10;99.90;;;;;;5072199;28;20494;-62
2022/07/24 01:46:49;;;;;;;19.65;14.68;;;18.00;99.90;;;;;;5073021;28;20028;-63
2022/07/24 01:49:15;;;;;;;19.27;16.00;;;18.00;99.90;;;;;;5073474;28;20460;-63
2022/07/24 01:51:40;;;;;;;19.50;15.93;;;18.00;99.90;;;;;;5072995;28;20218;-63
2022/07/24 01:54:06;;;;;;;25.30;21.08;;;17.90;99.90;;;;;;5071816;28;20056;-63
2022/07/24 01:56:33;;;;;;;26.77;20.48;;;17.70;99.90;;;;;;5072436;28;20507;-62
2022/07/24 01:58:58;;;;;;;27.63;23.10;;;17.60;99.90;;;;;;5073101;28;20051;-62
2022/07/24 02:01:26;;;;;;;29.63;25.45;;;17.50;99.90;;;;;;5073170;28;20423;-61
2022/07/24 02:03:51;;;;;;;33.10;26.83;;;17.20;99.90;;;;;;5072968;28;20021;-62
2022/07/24 02:06:18;;;;;;;36.53;25.75;;;17.10;99.90;;;;;;5072935;28;20086;-62
2022/07/24 02:08:44;;;;;;;32.70;23.02;;;17.00;99.90;;;;;;5073151;28;20020;-61
2022/07/24 02:11:09;;;;;;;26.42;21.48;;;16.90;99.90;;;;;;5071937;28;20481;-62
2022/07/24 02:13:35;;;;;;;28.95;22.10;;;16.80;99.90;;;;;;5071345;28;20029;-62
2022/07/24 02:16:01;;;;;;;33.88;20.73;;;16.80;99.90;;;;;;5072667;28;20102;-61
2022/07/24 02:18:27;;;;;;;27.95;20.55;;;16.90;99.90;;;;;;5073039;28;20033;-62
2022/07/24 02:20:53;;;;;;;26.27;21.27;;;16.90;99.90;;;;;;5072361;28;20594;-62
2022/07/24 02:23:19;;;;;;;25.85;20.52;;;16.80;99.90;;;;;;5072470;28;20099;-62
2022/07/24 02:25:47;;;;;;;25.98;19.88;;;16.80;99.90;;;;;;5072236;28;20036;-62
2022/07/24 02:28:13;;;;;;;32.10;21.17;;;16.80;99.90;;;;;;5072424;28;20032;-62
2022/07/24 02:30:39;;;;;;;25.67;20.17;;;16.70;99.90;;;;;;5072480;28;20033;-62
2022/07/24 02:33:05;;;;;;;27.67;21.15;;;16.70;99.90;;;;;;5071870;28;20533;-62
2022/07/24 02:35:30;;;;;;;28.15;21.83;;;16.60;99.90;;;;;;5072351;28;20020;-62
2022/07/24 02:37:56;;;;;;;29.92;23.00;;;16.70;99.90;;;;;;5072232;28;20021;-61
2022/07/24 02:40:22;;;;;;;30.88;23.45;;;16.70;99.90;;;;;;5071887;28;20455;-62
2022/07/24 02:42:47;;;;;;;30.55;24.02;;;16.80;99.90;;;;;;5071970;28;20028;-62
2022/07/24 02:45:13;;;;;;;33.05;23.60;;;16.80;99.90;;;;;;5071966;28;20481;-62
2022/07/24 02:47:54;;;;;;;35.35;25.20;;;16.80;99.90;;;;;;5071960;28;20054;-61
2022/07/24 02:50:21;;;;;;;27.10;21.88;;;16.90;99.90;;;;;;5070621;28;20559;-62
2022/07/24 02:52:47;;;;;;;28.50;22.55;;;16.90;99.90;;;;;;5070597;28;20063;-62
2022/07/24 02:55:13;;;;;;;31.10;23.35;;;17.00;99.90;;;;;;5071576;28;20582;-62
2022/07/24 02:57:40;;;;;;;32.05;23.02;;;16.90;99.90;;;;;;5070527;28;20501;-62
2022/07/24 03:00:09;;;;;;;28.13;22.98;;;16.90;99.90;;;;;;5071956;28;20024;-62
2022/07/24 03:02:35;;;;;;;30.13;24.05;;;16.80;99.90;;;;;;5071531;28;20036;-62
2022/07/24 03:05:02;;;;;;;32.70;23.83;;;16.70;99.90;;;;;;5071707;28;20073;-62
2022/07/24 03:07:28;;;;;;;34.78;25.42;;;16.70;99.90;;;;;;5071473;28;20033;-61
2022/07/24 03:09:54;;;;;;;35.45;25.27;;;16.70;99.90;;;;;;5072059;28;20106;-62
2022/07/24 03:12:20;;;;;;;32.13;26.58;;;16.60;99.90;;;;;;5071524;28;20072;-62
2022/07/24 03:14:45;;;;;;;39.47;27.35;;;16.50;99.90;;;;;;5071793;28;20527;-61
2022/07/24 03:17:11;;;;;;;36.83;26.83;;;16.50;99.90;;;;;;5071661;28;20025;-62
2022/07/24 03:19:37;;;;;;;36.63;26.60;;;16.60;99.90;;;;;;5071786;28;20050;-62
2022/07/24 03:22:02;;;;;;;31.20;26.50;;;16.60;99.90;;;;;;5071675;28;20032;-61
2022/07/24 03:24:28;;;;;;;31.17;25.27;;;16.60;99.90;;;;;;5071697;28;20108;-61
2022/07/24 03:26:54;;;;;;;31.50;25.35;;;16.60;99.90;;;;;;5070993;28;20039;-62
2022/07/24 03:29:19;;;;;;;31.92;26.48;;;16.60;99.90;;;;;;5071913;28;20524;-62
2022/07/24 03:31:46;;;;;;;32.63;25.75;;;16.50;99.90;;;;;;5071652;28;20039;-60
2022/07/24 03:34:12;;;;;;;35.97;26.70;;;16.50;99.90;;;;;;5071183;28;20392;-61
2022/07/24 03:36:37;;;;;;;38.88;27.05;;;16.40;99.90;;;;;;5071136;28;20027;-62
2022/07/24 03:39:04;;;;;;;35.92;26.63;;;16.40;99.90;;;;;;5071505;28;20025;-62
2022/07/24 03:41:30;;;;;;;31.98;27.05;;;16.40;99.90;;;;;;5071070;28;20035;-61
2022/07/24 03:43:55;;;;;;;33.15;27.23;;;16.30;99.90;;;;;;5070085;28;20032;-62
2022/07/24 03:46:21;;;;;;;32.25;25.73;;;16.30;99.90;;;;;;5070959;28;20052;-62
2022/07/24 03:48:47;;;;;;;42.15;27.45;;;16.40;99.90;;;;;;5071304;28;20024;-63
2022/07/24 03:51:12;;;;;;;32.75;26.13;;;16.40;99.90;;;;;;5070227;28;20036;-62
2022/07/24 03:53:38;;;;;;;30.65;25.05;;;16.50;99.90;;;;;;5071089;28;20421;-62
2022/07/24 03:56:06;;;;;;;28.77;24.20;;;16.50;99.90;;;;;;5071023;28;20039;-63
2022/07/24 03:58:31;;;;;;;31.30;25.77;;;16.40;99.90;;;;;;5071314;28;20044;-62
2022/07/24 04:00:57;;;;;;;32.22;24.67;;;16.40;99.90;;;;;;5071242;28;20021;-62
2022/07/24 04:03:23;;;;;;;31.55;23.13;;;16.40;99.90;;;;;;5071163;28;20107;-62
2022/07/24 04:05:48;;;;;;;31.92;24.55;;;16.40;99.90;;;;;;5070863;28;20035;-61
2022/07/24 04:08:14;;;;;;;30.02;23.60;;;16.30;99.90;;;;;;5071194;28;20025;-62
2022/07/24 04:10:40;;;;;;;28.60;22.85;;;16.40;99.90;;;;;;5070970;28;20032;-61
2022/07/24 04:13:05;;;;;;;26.75;21.23;;;16.40;99.90;;;;;;5070612;28;20116;-61
2022/07/24 04:15:31;;;;;;;27.02;23.77;;;16.30;99.90;;;;;;5070820;28;20362;-61
2022/07/24 04:17:56;;;;;;;36.80;24.65;;;16.30;99.90;;;;;;5071624;28;20032;-62
2022/07/24 04:20:22;;;;;;;29.75;23.98;;;16.30;99.90;;;;;;5074542;28;20032;-63
2022/07/24 04:22:48;;;;;;;32.08;24.75;;;16.30;99.90;;;;;;5074707;28;20077;-61
2022/07/24 04:25:13;;;;;;;33.05;25.92;;;16.20;99.90;;;;;;5074269;28;20033;-61
2022/07/24 04:27:39;;;;;;;31.02;26.15;;;16.30;99.90;;;;;;5074706;28;20236;-62
2022/07/24 04:30:06;;;;;;;33.92;25.23;;;16.40;99.90;;;;;;5074827;28;20430;-61
2022/07/24 04:32:31;;;;;;;32.30;25.92;;;16.20;99.90;;;;;;5074691;28;20025;-61
2022/07/24 04:34:57;;;;;;;30.08;24.42;;;16.10;99.90;;;;;;5074174;28;20150;-61
2022/07/24 04:37:23;;;;;;;28.65;23.83;;;16.10;99.90;;;;;;5074429;28;20265;-62
2022/07/24 04:39:48;;;;;;;32.78;23.63;;;16.10;99.90;;;;;;5074304;28;20036;-62
2022/07/24 04:42:14;;;;;;;31.65;24.52;;;16.20;99.90;;;;;;5074365;28;20037;-61
2022/07/24 04:44:40;;;;;;;29.55;23.35;;;16.40;99.90;;;;;;5074174;28;20028;-62
2022/07/24 04:47:06;;;;;;;26.77;22.40;;;16.50;99.90;;;;;;5074262;28;20090;-61
2022/07/24 04:49:31;;;;;;;27.27;21.48;;;16.60;99.90;;;;;;5074383;28;20286;-61
2022/07/24 04:51:57;;;;;;;27.10;20.77;;;16.60;99.90;;;;;;5074004;28;20075;-61
2022/07/24 04:54:23;;;;;;;26.42;21.27;;;16.60;99.90;;;;;;5074337;28;20064;-61
2022/07/24 04:56:48;;;;;;;29.98;20.90;;;16.60;99.90;;;;;;5074024;28;20017;-61
2022/07/24 04:59:14;;;;;;;31.45;22.85;;;16.60;99.90;;;;;;5073931;28;20044;-61
2022/07/24 05:01:39;;;;;;;27.92;21.75;;;16.70;99.90;;;;;;5073800;28;20094;-62
2022/07/24 05:04:05;;;;;;;26.15;20.48;;;16.80;99.90;;;;;;5074323;28;20021;-62
2022/07/24 05:06:31;;;;;;;27.02;20.73;;;16.80;99.90;;;;;;5073714;28;20036;-61
2022/07/24 05:08:56;;;;;;;26.33;20.80;;;16.70;99.90;;;;;;5073030;28;20397;-62
2022/07/24 05:11:22;;;;;;;25.48;20.73;;;16.90;99.90;;;;;;5074045;28;20024;-61
2022/07/24 05:13:48;;;;;;;28.08;19.55;;;17.00;99.90;;;;;;5074112;28;20020;-62
2022/07/24 05:16:13;;;;;;;24.52;19.98;;;17.10;99.90;;;;;;5073778;28;20424;-61
2022/07/24 05:18:39;;;;;;;26.67;19.00;;;17.10;99.90;;;;;;5074262;28;20021;-61
2022/07/24 05:21:05;;;;;;;26.52;19.35;;;17.10;99.90;;;;;;5073777;28;20508;-60
2022/07/24 05:23:30;;;;;;;23.73;18.90;;;17.20;99.90;;;;;;5072271;28;20063;-60
2022/07/24 05:25:56;;;;;;;24.23;19.45;;;17.20;99.90;;;;;;5073406;28;20092;-60
2022/07/24 05:28:22;;;;;;;24.38;19.23;;;17.20;99.90;;;;;;5073365;28;20501;-60
2022/07/24 05:30:47;;;;;;;19.95;17.60;;;17.20;99.90;;;;;;5073211;28;20033;-60
2022/07/24 05:33:13;;;;;;;24.00;18.92;;;17.30;99.90;;;;;;5073108;28;20033;-60
2022/07/24 05:35:39;;;;;;;24.80;19.15;;;17.30;99.90;;;;;;5073220;28;20083;-60
2022/07/24 05:38:04;;;;;;;27.00;19.85;;;17.30;99.90;;;;;;5073343;28;20016;-61
2022/07/24 05:40:30;;;;;;;20.88;17.73;;;17.40;99.90;;;;;;5072900;28;20444;-61
2022/07/24 05:42:56;;;;;;;24.08;18.80;;;17.30;99.90;;;;;;5072816;28;20028;-61
2022/07/24 05:45:22;;;;;;;24.10;19.08;;;17.30;99.90;;;;;;5073212;28;20115;-61
2022/07/24 05:47:47;;;;;;;20.33;17.92;;;17.40;99.90;;;;;;5072834;28;20028;-61
2022/07/24 05:50:14;;;;;;;22.27;17.10;;;17.50;99.90;;;;;;5072973;28;20050;-61
2022/07/24 05:52:41;;;;;;;22.70;18.25;;;17.60;99.90;;;;;;5072726;28;20513;-61
2022/07/24 05:55:07;;;;;;;23.48;18.05;;;17.60;99.90;;;;;;5072744;28;20028;-61
2022/07/24 05:57:33;;;;;;;20.63;17.00;;;17.60;99.90;;;;;;5072680;28;20051;-61
2022/07/24 05:59:59;;;;;;;25.23;17.00;;;17.60;99.90;;;;;;5072769;28;20020;-62
2022/07/24 06:02:24;;;;;;;21.83;17.17;;;17.70;99.90;;;;;;5072720;28;20021;-61
2022/07/24 06:04:50;;;;;;;24.27;16.98;;;17.70;99.90;;;;;;5072229;28;20043;-61
2022/07/24 06:07:16;;;;;;;24.70;16.70;;;17.80;99.90;;;;;;5071603;28;20032;-61
2022/07/24 06:09:41;;;;;;;25.80;16.73;;;18.00;99.90;;;;;;5072683;28;20094;-61
2022/07/24 06:12:07;;;;;;;21.33;15.50;;;18.10;99.90;;;;;;5072387;28;20082;-61
2022/07/24 06:14:33;;;;;;;24.55;15.95;;;18.10;99.90;;;;;;5072409;28;20039;-61
2022/07/24 06:16:59;;;;;;;21.58;16.42;;;18.20;99.90;;;;;;5072094;28;20024;-62
2022/07/24 06:19:25;;;;;;;18.85;15.10;;;18.30;99.90;;;;;;5072370;28;20035;-61
2022/07/24 06:21:51;;;;;;;20.35;15.07;;;18.30;99.90;;;;;;5070855;28;20493;-61
2022/07/24 06:24:17;;;;;;;21.55;14.65;;;18.40;99.90;;;;;;5071956;28;20078;-61
2022/07/24 06:26:42;;;;;;;18.55;14.65;;;18.40;99.90;;;;;;5072025;28;20028;-61
2022/07/24 06:29:08;;;;;;;20.48;14.48;;;18.60;99.90;;;;;;5072160;28;20068;-61
2022/07/24 06:31:33;;;;;;;17.80;13.90;;;18.60;99.90;;;;;;5071863;28;20024;-61
2022/07/24 06:33:59;;;;;;;20.13;14.13;;;18.70;99.90;;;;;;5071951;28;20499;-61
2022/07/24 06:36:25;;;;;;;22.13;14.40;;;18.80;99.90;;;;;;5071801;28;20524;-61
2022/07/24 06:38:50;;;;;;;21.58;14.63;;;19.00;99.90;;;;;;5071961;28;20059;-62
2022/07/24 06:41:17;;;;;;;16.48;13.13;;;19.20;99.90;;;;;;5069906;28;20055;-61
2022/07/24 06:43:43;;;;;;;16.77;12.82;;;19.40;99.90;;;;;;5071858;28;20024;-61
2022/07/24 06:46:08;;;;;;;17.00;12.55;;;19.40;99.90;;;;;;5071791;28;20051;-61
2022/07/24 06:48:34;;;;;;;14.10;10.73;;;19.40;99.90;;;;;;5071812;28;20021;-62
2022/07/24 06:50:59;;;;;;;13.20;10.18;;;19.50;99.90;;;;;;5071592;28;20116;-61
2022/07/24 06:53:25;;;;;;;13.55;9.73;;;19.50;99.90;;;;;;5071419;28;20035;-61
2022/07/24 06:55:53;;;;;;;13.40;8.52;;;19.50;99.90;;;;;;5071485;28;20021;-62
2022/07/24 06:58:19;;;;;;;13.05;8.70;;;19.90;99.90;;;;;;5071586;28;20044;-62
2022/07/24 07:00:46;;;;;;;10.65;7.70;;;21.10;99.90;;;;;;5071512;28;20032;-63
2022/07/24 07:03:11;;;;;;;9.70;7.25;;;22.30;99.90;;;;;;5071675;28;20107;-63
2022/07/24 07:05:37;;;;;;;9.85;7.10;;;23.40;99.90;;;;;;5071332;28;20450;-63
2022/07/24 07:08:03;;;;;;;8.02;6.22;;;24.00;99.90;;;;;;5071373;28;20028;-63
2022/07/24 07:10:28;;;;;;;7.65;5.07;;;24.70;99.90;;;;;;5071243;28;20056;-64
2022/07/24 07:12:54;;;;;;;7.03;5.13;;;25.00;99.90;;;;;;5071462;28;20081;-63
2022/07/24 07:15:20;;;;;;;7.05;5.22;;;25.00;99.90;;;;;;5071414;28;20028;-64
2022/07/24 07:17:45;;;;;;;6.93;4.70;;;25.50;99.90;;;;;;5071487;28;20024;-63
2022/07/24 07:20:12;;;;;;;8.32;4.95;;;25.40;99.90;;;;;;5071189;28;20055;-63
2022/07/24 07:22:38;;;;;;;6.15;4.40;;;25.40;99.90;;;;;;5071321;28;20032;-63
2022/07/24 07:25:06;;;;;;;5.38;4.22;;;25.00;99.90;;;;;;5071924;28;20058;-63
2022/07/24 07:27:31;;;;;;;6.75;4.28;;;25.10;99.90;;;;;;5071578;28;20016;-63
2022/07/24 07:29:57;;;;;;;6.32;4.70;;;25.30;99.90;;;;;;5071836;28;20024;-64
2022/07/24 07:32:23;;;;;;;5.85;4.30;;;25.60;99.90;;;;;;5071411;28;20385;-63
2022/07/24 07:34:48;;;;;;;7.78;4.05;;;25.10;99.90;;;;;;5071397;28;20027;-63
2022/07/24 07:37:14;;;;;;;5.10;4.28;;;25.50;99.90;;;;;;5071167;28;20043;-63
2022/07/24 07:39:39;;;;;;;4.47;3.95;;;26.10;99.90;;;;;;5070160;28;20172;-63
2022/07/24 07:42:05;;;;;;;4.20;3.63;;;26.20;99.90;;;;;;5070056;28;20036;-64
2022/07/24 07:44:31;;;;;;;5.28;4.03;;;26.80;99.90;;;;;;5071064;28;20025;-63
2022/07/24 07:46:56;;;;;;;6.95;4.50;;;27.10;99.40;;;;;;5070085;28;20033;-65
2022/07/24 07:49:22;;;;;;;4.75;3.50;;;26.70;99.70;;;;;;5071207;28;20118;-63
2022/07/24 07:51:51;;;;;;;6.55;3.88;;;26.50;99.70;;;;;;5071240;28;20541;-63
2022/07/24 07:54:17;;;;;;;6.57;3.60;;;26.40;99.90;;;;;;5073703;28;20032;-63
2022/07/24 07:56:42;;;;;;;6.57;3.67;;;26.70;99.90;;;;;;5075078;28;20028;-63
2022/07/24 07:59:08;;;;;;;6.00;3.60;;;26.80;99.90;;;;;;5075411;28;20409;-64
2022/07/24 08:01:34;;;;;;;6.18;3.20;;;27.10;99.40;;;;;;5075092;28;20021;-63
2022/07/24 08:03:59;;;;;;;4.68;3.35;;;27.20;98.80;;;;;;5074762;28;20117;-63
2022/07/24 08:06:25;;;;;;;5.82;3.40;;;27.90;98.00;;;;;;5075045;28;20417;-65
2022/07/24 08:08:51;;;;;;;4.78;3.40;;;28.90;95.40;;;;;;5073976;28;20130;-66
2022/07/24 08:11:16;;;;;;;4.90;3.00;;;29.10;94.40;;;;;;5075233;28;20035;-65
2022/07/24 08:13:42;;;;;;;5.00;3.00;;;28.90;95.00;;;;;;5075417;28;20035;-63
2022/07/24 08:16:08;;;;;;;3.85;2.83;;;28.20;95.20;;;;;;5073537;28;20423;-63
2022/07/24 08:18:33;;;;;;;5.63;3.40;;;27.90;95.60;;;;;;5075268;28;20013;-64
2022/07/24 08:20:59;;;;;;;3.58;2.80;;;27.80;96.20;;;;;;5074797;28;20538;-64
2022/07/24 08:23:25;;;;;;;3.47;2.38;;;28.20;96.40;;;;;;5075022;28;20157;-65
2022/07/24 08:25:51;;;;;;;4.10;2.70;;;29.30;94.40;;;;;;5074855;28;20063;-64
2022/07/24 08:28:17;;;;;;;4.97;2.53;;;30.00;92.10;;;;;;5075014;28;20031;-64
2022/07/24 08:30:43;;;;;;;2.70;2.50;;;30.30;92.00;;;;;;5074940;28;20046;-65
2022/07/24 08:33:09;;;;;;;3.15;2.40;;;30.10;91.40;;;;;;5073443;28;20020;-64
2022/07/24 08:35:35;;;;;;;3.72;2.28;;;29.80;91.30;;;;;;5074737;28;20028;-64
2022/07/24 08:38:01;;;;;;;3.35;2.17;;;29.10;92.10;;;;;;5075687;28;20020;-65
2022/07/24 08:40:34;;;;;;;3.92;2.50;;;28.40;93.20;;;;;;5075307;28;20100;-66
2022/07/24 08:43:00;;;;;;;3.78;2.53;;;28.80;93.20;;;;;;5074697;28;20021;-64
2022/07/24 08:45:27;;;;;;;4.10;1.80;;;29.30;92.40;;;;;;5075022;28;20397;-64
2022/07/24 08:47:55;;;;;;;3.08;2.30;;;29.40;91.70;;;;;;5074557;28;20029;-64
2022/07/24 08:50:20;;;;;;;2.97;2.00;;;29.20;92.20;;;;;;5074333;28;20104;-65
2022/07/24 08:52:47;;;;;;;2.72;2.08;;;29.30;91.90;;;;;;5074045;28;20115;-65
2022/07/24 08:55:13;;;;;;;5.25;2.13;;;30.00;90.60;;;;;;5074257;28;20056;-64
2022/07/24 08:57:39;;;;;;;5.90;2.30;;;30.40;90.30;;;;;;5072825;28;20067;-65
2022/07/24 09:00:05;;;;;;;4.03;2.13;;;30.50;90.50;;;;;;5074282;28;20021;-65
2022/07/24 09:02:31;;;;;;;2.97;2.20;;;30.50;90.30;;;;;;5073898;28;20047;-64
2022/07/24 09:05:00;;;;;;;2.55;2.13;;;30.70;88.70;;;;;;5073420;28;20032;-64
2022/07/24 09:07:29;;;;;;;3.70;2.17;;;30.20;89.90;;;;;;5073704;28;20111;-64
2022/07/24 09:10:05;;;;;;;3.33;2.00;;;30.30;90.70;;;;;;5073773;28;20020;-65
2022/07/24 09:12:32;;;;;;;2.30;1.73;;;30.20;89.00;;;;;;5073498;28;20036;-65
2022/07/24 09:14:59;;;;;;;2.90;2.15;;;29.80;90.30;;;;;;5074089;28;20055;-65
2022/07/24 09:17:24;;;;;;;3.75;2.03;;;30.10;90.20;;;;;;5073518;28;20507;-64
2022/07/24 09:20:00;;;;;;;2.83;1.77;;;29.80;90.30;;;;;;5073755;28;20037;-63
2022/07/24 09:22:34;;;;;;;3.63;1.80;;;29.60;90.40;;;;;;5073487;28;20052;-64
2022/07/24 09:25:11;;;;;;;3.50;2.10;;;29.60;90.20;;;;;;5073315;28;20487;-64
2022/07/24 09:27:40;;;;;;;2.40;1.80;;;30.20;89.60;;;;;;5073690;28;20031;-63
2022/07/24 09:30:07;;;;;;;1.85;1.65;;;30.10;89.00;;;;;;5073364;28;20048;-64
2022/07/24 09:32:33;;;;;;;2.00;1.77;;;30.00;87.90;;;;;;5072034;28;20036;-64
2022/07/24 09:34:59;;;;;;;2.78;1.70;;;29.80;89.00;;;;;;5071848;28;20068;-64
2022/07/24 09:37:27;;;;;;;2.55;1.58;;;30.60;88.40;;;;;;5072698;28;20031;-64
2022/07/24 09:39:58;;;;;;;2.15;1.67;;;30.10;86.00;;;;;;5071744;28;20507;-64
2022/07/24 09:42:30;;;;;;;2.15;1.85;;;29.60;88.90;;;;;;5072069;28;20051;-64
2022/07/24 09:44:59;;;;;;;2.75;1.60;;;29.70;88.70;;;;;;5073001;28;20028;-64
2022/07/24 09:47:25;;;;;;;1.80;1.63;;;29.70;88.50;;;;;;5072766;28;20021;-64
2022/07/24 09:50:09;;;;;;;1.60;1.50;;;29.70;87.40;;;;;;5073094;28;20499;-64
2022/07/24 09:52:35;;;;;;;3.40;1.70;;;29.50;87.60;;;;;;5072720;28;20031;-63
2022/07/24 09:55:01;;;;;;;4.88;1.67;;;29.50;88.50;;;;;;5072885;28;20028;-64
2022/07/24 09:57:28;;;;;;;3.25;1.80;;;29.60;86.60;;;;;;5072875;28;20024;-64
2022/07/24 10:00:03;;;;;;;4.13;2.00;;;29.60;86.50;;;;;;5073441;28;20096;-64
2022/07/24 10:02:32;;;;;;;2.35;2.00;;;29.80;86.60;;;;;;5071173;28;20032;-64
2022/07/24 10:04:59;;;;;;;4.28;1.85;;;29.70;88.90;;;;;;5072911;28;20405;-64
2022/07/24 10:07:26;;;;;;;4.13;2.00;;;29.70;88.10;;;;;;5072310;28;20029;-64
2022/07/24 10:09:54;;;;;;;3.88;1.73;;;29.70;87.50;;;;;;5072417;28;20064;-64
2022/07/24 10:12:22;;;;;;;2.90;1.98;;;30.20;87.60;;;;;;5072447;28;20276;-64
2022/07/24 10:14:50;;;;;;;2.80;1.75;;;31.00;84.90;;;;;;5072449;28;20038;-64
2022/07/24 10:17:17;;;;;;;3.53;1.95;;;31.10;83.10;;;;;;5071617;28;20492;-65
2022/07/24 10:19:48;;;;;;;6.70;2.00;;;31.10;82.70;;;;;;5072474;28;20025;-64
2022/07/24 10:22:19;;;;;;;5.93;1.77;;;30.60;84.30;;;;;;5072344;28;20032;-64
2022/07/24 10:24:54;;;;;;;3.55;2.17;;;31.10;81.30;;;;;;5071994;28;20040;-65
2022/07/24 10:27:24;;;;;;;2.95;1.75;;;31.20;82.50;;;;;;5072089;28;20031;-65
2022/07/24 10:29:53;;;;;;;3.22;2.10;;;31.00;82.70;;;;;;5070740;28;20056;-65
2022/07/24 10:32:19;;;;;;;4.15;1.75;;;31.10;82.10;;;;;;5072491;28;20473;-65
2022/07/24 10:35:08;;;;;;;2.70;2.20;;;31.20;81.80;;;;;;5071933;28;20039;-65
2022/07/24 10:37:43;;;;;;;4.03;1.90;;;31.00;81.90;;;;;;5070583;28;20491;-64
2022/07/24 10:40:33;;;;;;;4.43;2.25;;;31.20;82.90;;;;;;5072035;28;20066;-65
2022/07/24 10:43:11;;;;;;;3.35;1.98;;;32.30;78.90;;;;;;5064422;28;20340;-65
2022/07/24 10:45:55;;;;;;;1.90;1.75;;;32.30;77.00;;;;;;5070555;28;20429;-64
2022/07/24 10:48:25;;;;;;;2.47;1.85;;;31.80;77.50;;;;;;5072171;28;20043;-64
2022/07/24 10:51:11;;;;;;;2.80;1.70;;;32.40;75.20;;;;;;5071438;28;20146;-64
2022/07/24 10:53:37;;;;;;;2.92;1.70;;;31.80;77.70;;;;;;5071523;28;20028;-65
2022/07/24 10:56:18;;;;;;;4.43;1.98;;;32.20;79.50;;;;;;5071792;28;20028;-65
2022/07/24 10:59:02;;;;;;;4.30;1.90;;;32.70;76.50;;;;;;5071410;28;20120;-65
2022/07/24 11:01:32;;;;;;;3.75;1.90;;;32.40;78.20;;;;;;5071693;28;20036;-65
2022/07/24 11:04:00;;;;;;;5.50;1.80;;;32.20;76.10;;;;;;5071629;28;20040;-64
2022/07/24 11:06:43;;;;;;;2.00;1.90;;;32.10;75.80;;;;;;5069903;28;20116;-64
2022/07/24 11:09:09;;;;;;;3.22;1.90;;;31.90;77.70;;;;;;5070335;28;20397;-65
2022/07/24 11:11:59;;;;;;;5.55;2.10;;;31.70;76.90;;;;;;5071647;28;20028;-65
2022/07/24 11:14:46;;;;;;;3.28;1.90;;;31.30;78.10;;;;;;5071054;28;20044;-66
2022/07/24 11:17:43;;;;;;;3.55;1.50;;;31.70;77.60;;;;;;5070149;28;20475;-66
2022/07/24 11:20:11;;;;;;;2.47;1.80;;;32.10;77.30;;;;;;5071499;28;20389;-65
2022/07/24 11:22:54;;;;;;;3.17;2.10;;;32.20;76.20;;;;;;5071408;28;20417;-65
2022/07/24 11:25:26;;;;;;;2.92;2.05;;;32.20;77.40;;;;;;5070318;28;20032;-64
2022/07/24 11:28:19;;;;;;;2.38;2.15;;;32.70;77.20;;;;;;5071496;28;20033;-65
2022/07/24 11:30:46;;;;;;;3.13;2.10;;;33.00;74.60;;;;;;5071616;28;20063;-64
2022/07/24 11:33:16;;;;;;;3.80;2.30;;;32.80;74.70;;;;;;5071572;28;20061;-65
2022/07/24 11:35:42;;;;;;;2.42;2.10;;;32.80;75.60;;;;;;5072226;28;20036;-65
2022/07/24 11:38:08;;;;;;;3.10;2.35;;;32.60;74.90;;;;;;5071699;28;20469;-66
2022/07/24 11:40:35;;;;;;;4.97;1.98;;;32.40;75.10;;;;;;5071392;28;20016;-64
2022/07/24 11:43:04;;;;;;;2.20;2.00;;;32.30;75.40;;;;;;5071734;28;20423;-65
2022/07/24 11:45:29;;;;;;;4.07;2.40;;;32.40;76.60;;;;;;5071512;28;20107;-64
2022/07/24 11:47:56;;;;;;;4.68;2.50;;;32.40;74.90;;;;;;5071532;28;20112;-65
2022/07/24 11:50:24;;;;;;;4.35;2.85;;;32.60;74.30;;;;;;5071144;28;20050;-65
2022/07/24 11:52:50;;;;;;;2.75;2.55;;;32.70;74.80;;;;;;5071128;28;20035;-65
2022/07/24 11:55:19;;;;;;;2.85;2.58;;;32.70;74.80;;;;;;5071521;28;20032;-65
2022/07/24 11:57:54;;;;;;;3.65;2.35;;;33.00;75.20;;;;;;5071588;28;20060;-65
2022/07/24 12:00:26;;;;;;;2.88;2.60;;;33.00;74.30;;;;;;5069800;28;20028;-67
2022/07/24 12:02:56;;;;;;;4.07;2.33;;;32.80;74.80;;;;;;5071079;28;20028;-66
2022/07/24 12:05:37;;;;;;;4.32;2.45;;;33.30;73.20;;;;;;5070868;28;20090;-66
2022/07/24 12:08:14;;;;;;;;;;;32.60;75.00;;;;;;5071649;28;20025;-64
2022/07/24 12:10:40;;;;;;;2.40;2.20;;;32.80;75.80;;;;;;5071292;28;19909;-65
2022/07/24 12:13:05;;;;;;;4.30;2.30;;;33.20;75.10;;;;;;5070666;28;20445;-66
2022/07/24 12:15:31;;;;;;;4.70;2.50;;;33.70;74.80;;;;;;5071139;28;20028;-66
2022/07/24 12:18:02;;;;;;;3.40;2.35;;;32.90;73.60;;;;;;5071089;28;20378;-65
2022/07/24 12:20:47;;;;;;;3.15;2.58;;;33.00;75.80;;;;;;5070988;28;20124;-66
2022/07/24 12:23:15;;;;;;;3.63;2.60;;;34.30;71.90;;;;;;5070997;28;20025;-65
2022/07/24 12:25:43;;;;;;;4.03;2.70;;;33.40;73.70;;;;;;5071062;28;20396;-66
2022/07/24 12:28:13;;;;;;;2.97;2.50;;;32.80;74.20;;;;;;5071192;28;20074;-66
2022/07/24 12:30:49;;;;;;;5.22;2.70;;;32.80;75.50;;;;;;5070621;28;20074;-66
2022/07/24 12:33:18;;;;;;;2.70;2.50;;;32.70;74.60;;;;;;5070793;28;20064;-66
2022/07/24 12:36:15;;;;;;;3.25;2.30;;;32.90;74.30;;;;;;5070800;28;20024;-66
2022/07/24 12:38:50;;;;;;;3.70;2.58;;;33.10;74.70;;;;;;5071418;28;20448;-65